Portada
METAR-TAF:

METAR-TAF

Aeropuertos :

Granada, España

Base Aérea de Armilla

latitud: 37-08N, longitud: 003-38-08W, altitud: 700 m

Observación

El informe se hizo hace 8 horas y 36 minutos, a las 20:00 UTC
Viento 5 kt del oeste
Temperatura 25°C
Humedad 39%
Presión 1013 hPa
Visibilidad 10 km o más
sin nubes por debajo de 1500 m y sin presencia de cumulonimbus.

METAR: LEGA 202000Z 28005KT CAVOK 25/10 Q1013

Hora: 06:36 (04:36 UTC)

Pronóstico

El informe se hizo hace 14 horas y 36 minutos, a las 14:00 UTC
Pronóstico válido del 20 a las 15 UTC al 20 a las 24 UTC
Viento 9 kt del oeste-noroeste
Visibilidad 10 km o más
sin nubes por debajo de 1500 m y sin presencia de cumulonimbus.

TAF: LEGA 201400Z 2015/2024 29009KT CAVOK

Observaciones y pronósticos meteorológicos de más de 4000 aeropuertos (mensajes METAR y TAF).

Los puntos amarillos y rojos representan las estaciones disponibles.

Ponga el ratón en el punto deseado para ver el nombre de la estación.

Haga clic para ver las observaciones y los pronósticos meteorológicos.

Para cambiar el mapa : haga clic en los botones verdes con una cruz de color negro para hacer un zoom, en el botón verde con un guión para alejar o en las flechas verdes para mapas adyacentes.


METAR-TAF: